createdAt,value
2019-01-20T00:04:47.915Z,10.30
2019-01-20T00:07:28.755Z,13.73
2019-01-20T00:09:57.302Z,11.03
2019-01-20T00:12:45.214Z,14.23
2019-01-20T00:15:33.172Z,16.77
2019-01-20T00:18:21.086Z,11.23
2019-01-20T00:21:08.976Z,11.60
2019-01-20T00:23:56.899Z,11.70
2019-01-20T00:26:44.875Z,11.17
2019-01-20T00:29:32.771Z,12.33
2019-01-20T00:32:20.678Z,13.07
2019-01-20T00:34:49.226Z,10.07
2019-01-20T00:37:37.209Z,12.70
2019-01-20T00:40:25.083Z,11.30
2019-01-20T00:43:12.995Z,12.30
2019-01-20T00:46:00.883Z,11.30
2019-01-20T00:48:48.803Z,11.77
2019-01-20T00:51:36.700Z,11.10
2019-01-20T00:54:24.612Z,12.70
2019-01-20T00:57:12.523Z,12.37
2019-01-20T01:00:00.404Z,10.10
2019-01-20T01:02:48.390Z,11.33
2019-01-20T01:05:29.917Z,11.27
2019-01-20T01:08:11.228Z,11.10
2019-01-20T01:10:51.835Z,11.43
2019-01-20T01:13:32.670Z,9.23
2019-01-20T01:16:14.410Z,12.13
2019-01-20T01:18:54.949Z,12.63
2019-01-20T01:21:35.803Z,10.43
2019-01-20T01:24:16.954Z,12.27
2019-01-20T01:26:57.922Z,10.90
2019-01-20T01:29:39.046Z,12.33
2019-01-20T01:32:19.815Z,9.40
2019-01-20T01:38:05.378Z,11.10
2019-01-20T01:40:46.443Z,9.80
2019-01-20T01:43:27.147Z,10.73
2019-01-20T01:46:07.787Z,11.63
2019-01-20T01:48:48.774Z,11.63
2019-01-20T01:51:29.401Z,11.20
2019-01-20T01:54:10.011Z,11.07
2019-01-20T01:56:50.542Z,11.97
2019-01-20T01:59:30.983Z,12.43
2019-01-20T02:02:12.018Z,8.70
2019-01-20T02:04:52.839Z,11.70
2019-01-20T02:07:33.634Z,11.17
2019-01-20T02:10:14.427Z,12.30
2019-01-20T02:16:03.584Z,9.67
2019-01-20T02:18:44.180Z,13.67
2019-01-20T02:21:24.911Z,12.57
2019-01-20T02:27:13.555Z,11.13
2019-01-20T02:29:54.015Z,12.90
2019-01-20T02:32:35.018Z,12.33
2019-01-20T02:35:16.055Z,10.30
2019-01-20T02:41:16.009Z,10.23
2019-01-20T02:43:56.796Z,11.53
2019-01-20T02:46:37.692Z,11.37
2019-01-20T02:49:18.702Z,10.33
2019-01-20T02:51:59.851Z,12.40
2019-01-20T02:54:40.959Z,10.23
2019-01-20T02:57:21.862Z,11.20
2019-01-20T03:00:02.315Z,10.80
2019-01-20T03:02:42.830Z,11.60
2019-01-20T03:05:23.397Z,13.60
2019-01-20T03:08:04.270Z,10.33
2019-01-20T03:10:45.383Z,12.10
2019-01-20T03:13:26.275Z,12.80
2019-01-20T03:16:07.112Z,11.60
2019-01-20T03:18:47.695Z,11.83
2019-01-20T03:21:28.489Z,11.37
2019-01-20T03:24:08.826Z,10.83
2019-01-20T03:26:49.980Z,11.37
2019-01-20T03:29:30.515Z,15.77
2019-01-20T03:32:11.350Z,10.97
2019-01-20T03:34:52.234Z,14.23
2019-01-20T03:37:32.762Z,12.40
2019-01-20T03:40:13.426Z,10.53
2019-01-20T03:42:54.138Z,14.70
2019-01-20T03:45:34.887Z,12.53
2019-01-20T03:48:15.431Z,12.90
2019-01-20T03:50:55.890Z,14.20
2019-01-20T03:53:36.762Z,16.50
2019-01-20T03:56:17.579Z,11.83
2019-01-20T03:58:58.634Z,11.57
2019-01-20T04:01:39.031Z,13.13
2019-01-20T04:04:19.795Z,13.33
2019-01-20T04:06:48.362Z,12.13
2019-01-20T04:09:36.252Z,15.80
2019-01-20T04:12:24.166Z,11.57
2019-01-20T04:15:32.798Z,13.60
2019-01-20T04:18:20.685Z,11.73
2019-01-20T04:21:08.590Z,10.17
2019-01-20T04:23:56.406Z,12.10
2019-01-20T04:26:44.311Z,11.50
2019-01-20T04:29:32.192Z,12.30
2019-01-20T04:32:20.166Z,12.63
2019-01-20T04:35:28.771Z,12.60
2019-01-20T04:38:16.678Z,13.47
2019-01-20T04:41:04.774Z,14.47
2019-01-20T04:43:52.662Z,10.23
2019-01-20T04:46:40.565Z,14.23
2019-01-20T04:49:28.439Z,13.40
2019-01-20T04:52:16.342Z,15.33
2019-01-20T04:55:24.957Z,15.43
2019-01-20T05:01:07.491Z,14.07
2019-01-20T05:03:55.438Z,13.20
2019-01-20T05:09:41.041Z,12.93
2019-01-20T05:12:21.594Z,14.17
2019-01-20T05:15:02.093Z,12.00
2019-01-20T05:17:43.005Z,15.37
2019-01-20T05:20:23.678Z,16.03
2019-01-20T05:23:04.292Z,14.77
2019-01-20T05:25:44.811Z,13.00
2019-01-20T05:28:25.894Z,15.90
2019-01-20T05:31:06.802Z,15.10
2019-01-20T05:33:47.872Z,13.17
2019-01-20T05:36:28.994Z,15.77
2019-01-20T05:39:09.826Z,15.87
2019-01-20T05:41:50.650Z,17.10
2019-01-20T05:44:31.294Z,13.97
2019-01-20T05:47:11.940Z,13.10
2019-01-20T05:49:52.560Z,12.43
2019-01-20T05:52:33.173Z,13.97
2019-01-20T05:55:14.613Z,17.53
2019-01-20T05:57:55.761Z,15.23
2019-01-20T06:00:37.234Z,14.70
2019-01-20T06:03:18.094Z,13.57
2019-01-20T06:05:59.002Z,13.87
2019-01-20T06:08:39.710Z,15.37
2019-01-20T06:11:20.091Z,15.70
2019-01-20T06:14:00.766Z,11.77
2019-01-20T06:16:41.460Z,15.00
2019-01-20T06:19:21.887Z,14.67
2019-01-20T06:22:02.796Z,14.17
2019-01-20T06:24:43.452Z,17.37
2019-01-20T06:27:24.323Z,14.73
2019-01-20T06:30:05.277Z,16.03
2019-01-20T06:32:45.916Z,12.67
2019-01-20T06:35:26.754Z,15.30
2019-01-20T06:38:07.499Z,14.90
2019-01-20T06:40:48.291Z,16.23
2019-01-20T06:46:37.526Z,13.97
2019-01-20T06:49:18.147Z,14.97
2019-01-20T06:51:58.677Z,15.17
2019-01-20T06:54:39.898Z,12.73
2019-01-20T06:57:20.647Z,14.57
2019-01-20T07:00:01.890Z,15.77
2019-01-20T07:02:42.559Z,13.77
2019-01-20T07:05:23.052Z,13.40
2019-01-20T07:08:03.575Z,13.97
2019-01-20T07:10:44.183Z,16.00
2019-01-20T07:13:25.102Z,15.73
2019-01-20T07:16:06.066Z,13.63
2019-01-20T07:18:46.819Z,12.63
2019-01-20T07:24:46.634Z,16.63
2019-01-20T07:27:27.657Z,16.50
2019-01-20T07:30:08.691Z,20.68
2019-01-20T07:32:49.154Z,15.43
2019-01-20T07:35:30.023Z,19.77
2019-01-20T07:38:11.035Z,14.83
2019-01-20T07:40:51.594Z,13.03
2019-01-20T07:43:32.070Z,15.37
2019-01-20T07:46:12.848Z,15.43
2019-01-20T07:48:53.714Z,13.23
2019-01-20T07:51:34.096Z,13.10
2019-01-20T07:54:14.702Z,13.20
2019-01-20T07:56:55.315Z,16.87
2019-01-20T07:59:35.785Z,13.87
2019-01-20T08:02:16.482Z,15.83
2019-01-20T08:04:57.199Z,15.07
2019-01-20T08:07:37.823Z,16.33
2019-01-20T08:10:18.413Z,16.90
2019-01-20T08:12:59.486Z,16.80
2019-01-20T08:15:40.156Z,15.27
2019-01-20T08:18:21.124Z,15.07
2019-01-20T08:21:02.198Z,17.33
2019-01-20T08:23:43.315Z,18.17
2019-01-20T08:26:24.302Z,17.80
2019-01-20T08:29:05.198Z,16.90
2019-01-20T08:31:33.765Z,13.73
2019-01-20T08:34:21.574Z,16.00
2019-01-20T08:37:09.507Z,15.47
2019-01-20T08:39:57.406Z,17.97
2019-01-20T08:42:45.413Z,17.13
2019-01-20T08:45:54.031Z,12.67
2019-01-20T08:48:41.982Z,28.13
2019-01-20T08:51:29.898Z,20.10
2019-01-20T08:54:17.785Z,17.87
2019-01-20T08:57:05.700Z,15.97
2019-01-20T08:59:53.599Z,19.37
2019-01-20T09:02:41.591Z,15.90
2019-01-20T09:05:22.415Z,15.80
2019-01-20T09:08:02.927Z,18.00
2019-01-20T09:10:43.625Z,17.37
2019-01-20T09:13:24.610Z,17.90
2019-01-20T09:16:08.346Z,16.67
2019-01-20T09:18:49.116Z,17.97
2019-01-20T09:21:29.658Z,19.87
2019-01-20T09:24:10.383Z,16.77
2019-01-20T09:26:51.171Z,17.20
2019-01-20T09:29:31.606Z,17.70
2019-01-20T09:32:12.314Z,21.33
2019-01-20T09:34:53.162Z,20.30
2019-01-20T09:37:34.153Z,15.83
2019-01-20T09:40:14.859Z,18.83
2019-01-20T09:42:55.703Z,18.63
2019-01-20T09:48:44.678Z,18.87
2019-01-20T09:51:25.234Z,17.87
2019-01-20T09:54:06.050Z,16.80
2019-01-20T09:56:46.903Z,19.03
2019-01-20T09:59:27.591Z,18.87
2019-01-20T10:02:07.935Z,18.13
2019-01-20T10:04:48.471Z,20.43
2019-01-20T10:07:48.275Z,20.63
2019-01-20T10:10:28.791Z,18.07
2019-01-20T10:13:09.138Z,18.90
2019-01-20T10:15:52.225Z,22.93
2019-01-20T10:18:32.345Z,18.07
2019-01-20T10:21:12.954Z,22.43
2019-01-20T10:23:53.710Z,23.70
2019-01-20T10:26:34.462Z,21.83
2019-01-20T10:29:15.114Z,20.70
2019-01-20T10:31:55.884Z,19.77
2019-01-20T10:34:36.674Z,22.23
2019-01-20T10:37:17.362Z,22.00
2019-01-20T10:39:57.858Z,19.97
2019-01-20T10:42:38.693Z,24.30
2019-01-20T10:45:19.291Z,24.47
2019-01-20T10:47:59.755Z,22.53
2019-01-20T10:50:40.487Z,21.47
2019-01-20T10:53:21.467Z,26.43
2019-01-20T10:56:01.998Z,25.00
2019-01-20T10:58:42.670Z,24.77
2019-01-20T11:01:23.238Z,21.87
2019-01-20T11:04:03.970Z,24.53
2019-01-20T11:06:44.776Z,23.67
2019-01-20T11:09:25.382Z,23.70
2019-01-20T11:12:06.424Z,25.67
2019-01-20T11:14:47.527Z,25.77
2019-01-20T11:17:28.746Z,25.80
2019-01-20T11:23:28.618Z,23.77
2019-01-20T11:26:09.231Z,26.87
2019-01-20T11:28:50.101Z,22.10
2019-01-20T11:31:30.994Z,28.87
2019-01-20T11:34:11.770Z,27.63
2019-01-20T11:36:52.365Z,24.83
2019-01-20T11:39:32.907Z,24.17
2019-01-20T11:42:13.871Z,28.63
2019-01-20T11:44:54.657Z,29.73
2019-01-20T11:47:41.806Z,26.47
2019-01-20T11:50:18.987Z,25.60
2019-01-20T11:53:00.748Z,27.63
2019-01-20T11:55:41.798Z,28.03
2019-01-20T11:58:22.562Z,24.33
2019-01-20T12:01:03.204Z,29.13
2019-01-20T12:03:43.829Z,24.33
2019-01-20T12:06:24.447Z,24.97
2019-01-20T12:09:04.983Z,25.43
2019-01-20T12:11:45.578Z,26.43
2019-01-20T12:14:26.542Z,27.43
2019-01-20T12:17:07.434Z,27.80
2019-01-20T12:19:48.338Z,29.17
2019-01-20T12:22:29.407Z,25.80
2019-01-20T12:25:10.408Z,24.90
2019-01-20T12:27:53.009Z,23.57
2019-01-20T12:30:33.952Z,23.77
2019-01-20T12:33:14.705Z,22.37
2019-01-20T12:35:55.294Z,26.40
2019-01-20T12:38:36.061Z,26.03
2019-01-20T12:41:16.698Z,24.57
2019-01-20T12:43:57.504Z,22.83
2019-01-20T12:46:38.327Z,24.27
2019-01-20T12:49:18.968Z,23.60
2019-01-20T12:51:59.892Z,26.37
2019-01-20T12:54:40.479Z,25.53
2019-01-20T12:57:21.646Z,29.17
2019-01-20T13:03:10.872Z,26.97
2019-01-20T13:05:51.666Z,26.73
2019-01-20T13:08:32.490Z,24.23
2019-01-20T13:11:13.309Z,27.10
2019-01-20T13:13:54.185Z,28.13
2019-01-20T13:16:35.065Z,26.00
2019-01-20T13:19:15.782Z,30.43
2019-01-20T13:21:56.679Z,28.13
2019-01-20T13:24:37.111Z,24.80
2019-01-20T13:27:17.681Z,24.53
2019-01-20T13:29:58.499Z,27.23
2019-01-20T13:32:27.046Z,25.87
2019-01-20T13:35:15.328Z,26.27
2019-01-20T13:38:23.931Z,28.43
2019-01-20T13:41:12.106Z,28.77
2019-01-20T13:44:00.086Z,32.17
2019-01-20T13:46:47.978Z,32.43
2019-01-20T13:49:35.890Z,30.33
2019-01-20T13:52:23.778Z,29.60
2019-01-20T13:55:32.409Z,32.37
2019-01-20T13:58:20.298Z,32.53
2019-01-20T14:01:08.212Z,32.70
2019-01-20T14:03:56.102Z,35.83
2019-01-20T14:06:36.386Z,34.20
2019-01-20T14:09:17.382Z,34.37
2019-01-20T14:11:58.279Z,38.37
2019-01-20T14:14:26.855Z,31.77
2019-01-20T14:17:14.750Z,34.40
2019-01-20T14:20:02.659Z,34.40
2019-01-20T14:22:50.623Z,31.17
2019-01-20T14:25:38.534Z,31.20
2019-01-20T14:28:26.413Z,28.77
2019-01-20T14:31:14.260Z,27.00
2019-01-20T14:34:02.151Z,30.57
2019-01-20T14:36:50.051Z,29.13
2019-01-20T14:39:37.958Z,27.67
2019-01-20T14:42:25.846Z,28.37
2019-01-20T14:45:34.474Z,30.70
2019-01-20T14:48:22.358Z,29.50
2019-01-20T14:51:10.274Z,31.53
2019-01-20T14:53:58.227Z,29.70
2019-01-20T14:56:46.130Z,29.67
2019-01-20T14:59:33.988Z,31.83
2019-01-20T15:02:21.879Z,28.23
2019-01-20T15:05:09.962Z,30.73
2019-01-20T15:07:57.910Z,29.40
2019-01-20T15:10:45.830Z,33.07
2019-01-20T15:13:33.710Z,33.23
2019-01-20T15:16:21.552Z,29.97
2019-01-20T15:19:09.444Z,31.87
2019-01-20T15:25:27.720Z,32.13
2019-01-20T15:28:15.717Z,30.47
2019-01-20T15:31:03.548Z,29.27
2019-01-20T15:33:51.437Z,28.80
2019-01-20T15:36:39.343Z,33.63
2019-01-20T15:39:27.278Z,32.00
2019-01-20T15:42:15.186Z,31.17
2019-01-20T15:45:03.165Z,31.03
2019-01-20T15:47:52.500Z,31.03
2019-01-20T15:50:40.753Z,28.87
2019-01-20T15:53:28.641Z,29.03
2019-01-20T15:56:16.549Z,31.27
2019-01-20T15:59:04.428Z,28.00
2019-01-20T16:01:52.342Z,28.43
2019-01-20T16:04:40.222Z,28.60
2019-01-20T16:07:21.355Z,31.40
2019-01-20T16:10:02.351Z,29.33
2019-01-20T16:12:43.135Z,30.93
2019-01-20T16:15:24.730Z,29.53
2019-01-20T16:18:05.616Z,27.97
2019-01-20T16:20:46.577Z,32.27
2019-01-20T16:23:27.047Z,31.60
2019-01-20T16:26:08.135Z,37.33
2019-01-20T16:28:36.683Z,33.67
2019-01-20T16:31:24.591Z,30.77
2019-01-20T16:34:12.478Z,32.30
2019-01-20T16:37:00.392Z,33.10
2019-01-20T16:39:48.278Z,32.53
2019-01-20T16:42:36.190Z,31.50
2019-01-20T16:45:44.818Z,30.60
2019-01-20T16:48:32.710Z,32.57
2019-01-20T16:51:20.611Z,33.33
2019-01-20T16:54:08.499Z,28.93
2019-01-20T16:56:56.405Z,36.73
2019-01-20T16:59:44.219Z,30.77
2019-01-20T17:02:32.270Z,33.17
2019-01-20T17:05:13.231Z,31.63
2019-01-20T17:07:53.815Z,33.97
2019-01-20T17:10:34.698Z,37.40
2019-01-20T17:13:15.700Z,33.17
2019-01-20T17:15:56.464Z,33.30
2019-01-20T17:18:37.322Z,33.73
2019-01-20T17:21:18.418Z,32.03
2019-01-20T17:23:58.969Z,35.20
2019-01-20T17:26:39.779Z,31.70
2019-01-20T17:29:20.926Z,34.47
2019-01-20T17:32:01.542Z,32.10
2019-01-20T17:34:42.364Z,29.53
2019-01-20T17:37:23.235Z,31.57
2019-01-20T17:40:04.150Z,34.13
2019-01-20T17:42:44.814Z,30.17
2019-01-20T17:45:25.279Z,31.30
2019-01-20T17:48:06.388Z,32.47
2019-01-20T17:50:46.923Z,27.30
2019-01-20T17:53:27.867Z,31.67
2019-01-20T17:56:08.471Z,31.80
2019-01-20T17:58:48.829Z,33.30
2019-01-20T18:01:29.478Z,32.60
2019-01-20T18:04:13.503Z,30.80
2019-01-20T18:06:54.214Z,31.20
2019-01-20T18:09:34.574Z,28.70
2019-01-20T18:12:15.238Z,28.73
2019-01-20T18:14:56.284Z,31.00
2019-01-20T18:17:36.743Z,28.20
2019-01-20T18:20:17.395Z,28.87
2019-01-20T18:22:57.834Z,31.53
2019-01-20T18:25:38.370Z,30.23
2019-01-20T18:28:19.318Z,28.53
2019-01-20T18:31:00.032Z,31.73
2019-01-20T18:33:40.645Z,31.37
2019-01-20T18:36:21.332Z,31.67
2019-01-20T18:39:01.841Z,27.43
2019-01-20T18:41:42.483Z,30.13
2019-01-20T18:44:23.327Z,26.53
2019-01-20T18:47:03.918Z,25.70
2019-01-20T18:49:44.735Z,29.60
2019-01-20T18:52:25.511Z,29.40
2019-01-20T18:55:06.455Z,26.97
2019-01-20T18:57:46.821Z,30.17
2019-01-20T19:00:27.510Z,30.13
2019-01-20T19:03:08.352Z,31.90
2019-01-20T19:05:48.834Z,32.10
2019-01-20T19:08:29.622Z,28.73
2019-01-20T19:11:10.374Z,31.80
2019-01-20T19:13:50.833Z,40.00
2019-01-20T19:16:31.726Z,42.10
2019-01-20T19:19:12.574Z,50.53
2019-01-20T19:21:53.500Z,39.27
2019-01-20T19:24:35.234Z,55.13
2019-01-20T19:30:35.398Z,40.50
2019-01-20T19:33:16.308Z,35.40
2019-01-20T19:35:57.010Z,33.03
2019-01-20T19:38:37.653Z,29.63
2019-01-20T19:41:17.982Z,31.67
2019-01-20T19:43:58.406Z,32.73
2019-01-20T19:46:39.234Z,32.30
2019-01-20T19:49:19.986Z,29.83
2019-01-20T19:52:00.538Z,32.30
2019-01-20T19:54:41.241Z,35.17
2019-01-20T19:57:21.740Z,31.17
2019-01-20T20:00:02.478Z,30.67
2019-01-20T20:02:43.174Z,32.20
2019-01-20T20:05:24.290Z,32.87
2019-01-20T20:08:04.964Z,32.37
2019-01-20T20:10:45.631Z,28.37
2019-01-20T20:13:26.052Z,31.93
2019-01-20T20:16:14.899Z,30.50
2019-01-20T20:19:02.782Z,32.30
2019-01-20T20:21:50.694Z,32.80
2019-01-20T20:24:38.610Z,29.23
2019-01-20T20:27:26.496Z,29.43
2019-01-20T20:30:34.248Z,30.93
2019-01-20T20:33:22.639Z,27.53
2019-01-20T20:36:10.494Z,32.60
2019-01-20T20:38:58.387Z,36.60
2019-01-20T20:41:46.292Z,32.70
2019-01-20T20:44:34.179Z,31.77
2019-01-20T20:47:22.086Z,32.37
2019-01-20T20:50:30.730Z,35.33
2019-01-20T20:53:18.618Z,34.10
2019-01-20T20:56:06.531Z,36.27
2019-01-20T20:58:54.406Z,30.67
2019-01-20T21:01:42.243Z,31.07
2019-01-20T21:04:30.175Z,29.60
2019-01-20T21:07:11.030Z,28.90
2019-01-20T21:09:56.419Z,32.37
2019-01-20T21:12:34.270Z,30.27
2019-01-20T21:15:14.730Z,26.23
2019-01-20T21:17:55.519Z,34.70
2019-01-20T21:20:35.978Z,31.23
2019-01-20T21:26:35.962Z,30.97
2019-01-20T21:32:55.597Z,30.80
2019-01-20T21:35:36.548Z,30.17
2019-01-20T21:38:16.887Z,30.43
2019-01-20T21:40:57.830Z,28.67
2019-01-20T21:43:38.406Z,30.03
2019-01-20T21:46:18.848Z,31.53
2019-01-20T21:49:00.102Z,28.17
2019-01-20T21:51:41.324Z,31.23
2019-01-20T21:54:21.846Z,29.27
2019-01-20T21:57:02.778Z,31.00
2019-01-20T21:59:43.207Z,30.43
2019-01-20T22:05:29.314Z,26.87
2019-01-20T22:08:10.110Z,31.37
2019-01-20T22:10:50.883Z,29.43
2019-01-20T22:13:32.077Z,30.30
2019-01-20T22:16:12.782Z,32.07
2019-01-20T22:19:12.699Z,30.50
2019-01-20T22:21:53.919Z,26.37
2019-01-20T22:24:34.938Z,32.40
2019-01-20T22:27:15.712Z,31.70
2019-01-20T22:29:56.475Z,27.73
2019-01-20T22:32:37.046Z,28.97
2019-01-20T22:35:18.018Z,29.47
2019-01-20T22:37:59.039Z,34.27
2019-01-20T22:40:39.959Z,29.40
2019-01-20T22:43:20.650Z,29.47
2019-01-20T22:49:20.875Z,28.93
2019-01-20T22:52:02.021Z,29.53
2019-01-20T22:54:42.747Z,27.17
2019-01-20T22:57:23.367Z,28.00
2019-01-20T23:00:04.047Z,31.67
2019-01-20T23:02:44.881Z,28.93
2019-01-20T23:08:44.936Z,29.93
2019-01-20T23:11:25.665Z,32.23
2019-01-20T23:14:06.231Z,28.93
2019-01-20T23:16:46.891Z,33.07
2019-01-20T23:19:27.529Z,31.17
2019-01-20T23:22:08.323Z,42.70
2019-01-20T23:24:49.015Z,37.03
2019-01-20T23:27:30.203Z,33.87
2019-01-20T23:30:11.150Z,36.90
2019-01-20T23:32:51.755Z,39.47
2019-01-20T23:35:32.211Z,33.67
2019-01-20T23:38:00.785Z,32.87
2019-01-20T23:40:48.672Z,31.80
2019-01-20T23:43:36.576Z,33.50
2019-01-20T23:46:24.462Z,29.77
2019-01-20T23:49:12.374Z,30.97
2019-01-20T23:52:00.360Z,28.57
2019-01-20T23:54:49.833Z,29.33
2019-01-20T23:57:37.715Z,31.77
